Time;durP1;ratioP1;P1;durP2;ratioP2;P2;SDS_P1;SDS_P2;PMS_P1;PMS_P2;Temp;Humidity;BMP_temperature;BMP_pressure;BME280_temperature;BME280_humidity;BME280_pressure;Samples;Min_cycle;Max_cycle;Signal;HPM_P1;HPM_P2
2022/10/29 00:01:03;;;;;;;19.88;10.15;;;;;;;17.95;61.34;102087.28;4968618;28;123093;-68
2022/10/29 00:03:31;;;;;;;18.33;10.13;;;;;;;17.95;61.27;102084.63;4960252;28;123676;-67
2022/10/29 00:06:00;;;;;;;20.08;11.18;;;;;;;17.93;61.40;102086.50;4960476;28;115097;-67
2022/10/29 00:08:29;;;;;;;17.75;10.73;;;;;;;17.93;61.41;102086.50;4962583;28;115126;-67
2022/10/29 00:11:07;;;;;;;20.83;10.85;;;;;;;17.93;61.72;102086.50;4967879;28;123889;-67
2022/10/29 00:13:35;;;;;;;18.38;10.63;;;;;;;17.93;61.58;102081.13;4963953;28;124830;-67
2022/10/29 00:16:07;;;;;;;22.77;9.68;;;;;;;17.94;61.96;102077.50;4967713;28;114092;-68
2022/10/29 00:18:34;;;;;;;15.18;10.20;;;;;;;17.95;61.82;102079.25;4955665;28;113956;-68
2022/10/29 00:21:07;;;;;;;16.45;9.75;;;;;;;17.95;61.82;102073.91;4961340;28;124415;-67
2022/10/29 00:23:34;;;;;;;18.98;10.68;;;;;;;17.94;61.72;102061.44;4963383;28;123579;-67
2022/10/29 00:26:01;;;;;;;19.55;11.70;;;;;;;17.93;61.88;102064.19;4966289;28;114337;-67
2022/10/29 00:28:29;;;;;;;21.38;10.43;;;;;;;17.92;61.93;102068.69;4970188;28;113494;-67
2022/10/29 00:31:00;;;;;;;21.83;10.90;;;;;;;17.92;61.85;102059.78;4965742;28;123673;-67
2022/10/29 00:33:27;;;;;;;20.25;11.35;;;;;;;17.90;61.96;102059.88;4980167;28;123235;-68
2022/10/29 00:35:55;;;;;;;18.33;10.63;;;;;;;17.88;62.04;102072.50;4955273;28;114697;-67
2022/10/29 00:38:22;;;;;;;19.45;10.93;;;;;;;17.87;62.00;102060.03;4962617;28;112839;-67
2022/10/29 00:40:49;;;;;;;22.33;11.98;;;;;;;17.85;61.99;102067.31;4964210;28;123943;-68
2022/10/29 00:43:19;;;;;;;24.10;12.13;;;;;;;17.83;62.04;102069.16;4958657;28;124083;-68
2022/10/29 00:45:59;;;;;;;21.73;12.50;;;;;;;17.81;62.26;102063.03;4957677;28;114857;-68
2022/10/29 00:48:28;;;;;;;19.10;11.75;;;;;;;17.80;62.43;102069.34;4960120;28;114208;-67
2022/10/29 00:50:57;;;;;;;21.45;12.27;;;;;;;17.79;62.33;102063.13;4961383;28;124315;-67
2022/10/29 00:53:27;;;;;;;23.63;11.93;;;;;;;17.79;62.63;102068.47;4963710;28;123991;-68
2022/10/29 00:55:56;;;;;;;23.30;12.45;;;;;;;17.80;62.50;102063.97;4961845;28;115723;-67
2022/10/29 00:58:24;;;;;;;24.50;11.80;;;;;;;17.81;62.46;102071.06;4962410;28;114538;-67
2022/10/29 01:00:51;;;;;;;23.08;12.80;;;;;;;17.81;62.71;102071.06;4964081;28;124001;-67
2022/10/29 01:03:18;;;;;;;25.35;12.57;;;;;;;17.81;62.79;102074.63;4978956;28;123184;-67
2022/10/29 01:05:45;;;;;;;20.08;12.75;;;;;;;17.82;62.88;102067.44;4964776;28;113895;-67
2022/10/29 01:08:13;;;;;;;27.67;13.48;;;;;;;17.83;63.06;102079.91;4961394;28;113713;-67
2022/10/29 01:11:11;;;;;;;27.65;12.88;;;;;;;17.85;63.21;102078.03;4960282;28;123523;-67
2022/10/29 01:14:00;;;;;;;24.08;12.98;;;;;;;17.85;63.29;102078.88;4959520;28;124529;-67
2022/10/29 01:16:33;;;;;;;25.88;13.25;;;;;;;17.87;63.45;102076.13;4966248;28;115347;-67
2022/10/29 01:19:44;;;;;;;29.15;13.40;;;;;;;17.90;63.49;102075.97;4959422;28;114010;-67
2022/10/29 01:22:22;;;;;;;25.83;12.95;;;;;;;17.93;63.15;102069.53;4960412;28;124178;-67
2022/10/29 01:25:07;;;;;;;29.55;13.43;;;;;;;17.97;63.28;102066.63;4959359;28;124593;-67
2022/10/29 01:27:52;;;;;;;25.05;12.95;;;;;;;17.99;63.41;102059.34;4958009;28;114179;-67
2022/10/29 01:30:55;;;;;;;25.17;12.52;;;;;;;18.01;63.28;102057.44;4963092;28;114028;-67
2022/10/29 01:33:31;;;;;;;29.60;13.60;;;;;;;18.03;63.40;102052.88;4965086;28;124997;-67
2022/10/29 01:36:12;;;;;;;29.00;14.00;;;;;;;18.04;63.80;102054.56;4954313;28;123914;-67
2022/10/29 01:39:18;;;;;;;28.73;13.75;;;;;;;18.06;63.57;102052.69;4965367;28;114491;-68
2022/10/29 01:42:04;;;;;;;27.52;14.43;;;;;;;18.06;63.43;102033.94;4955753;28;96993;-67
2022/10/29 01:44:47;;;;;;;22.25;13.50;;;;;;;18.09;63.46;102047.13;4963325;28;123230;-68
2022/10/29 01:47:18;;;;;;;32.08;14.32;;;;;;;18.12;63.45;102039.88;4963717;28;124406;-67
2022/10/29 01:49:53;;;;;;;23.75;13.75;;;;;;;18.15;63.74;102031.66;4965353;28;115940;-67
2022/10/29 01:52:22;;;;;;;26.88;14.02;;;;;;;18.17;63.43;102029.75;4971638;28;116474;-67
2022/10/29 01:54:50;;;;;;;23.88;13.75;;;;;;;18.18;63.60;102026.13;4966018;28;123286;-68
2022/10/29 01:57:34;;;;;;;29.10;13.85;;;;;;;18.19;63.24;102033.19;4968935;28;124725;-67
2022/10/29 02:00:07;;;;;;;26.88;14.20;;;;;;;18.20;63.57;102029.59;4966215;28;113913;-67
2022/10/29 02:03:04;;;;;;;23.83;13.60;;;;;;;18.21;63.32;102031.28;4962611;28;114506;-67
2022/10/29 02:05:50;;;;;;;25.23;13.25;;;;;;;18.20;63.11;102018.84;4949689;28;122987;-67
2022/10/29 02:08:48;;;;;;;24.73;12.50;;;;;;;18.18;63.32;102010.03;4959630;28;124706;-67
2022/10/29 02:11:51;;;;;;;23.10;13.05;;;;;;;18.15;63.36;102015.56;4951310;28;114530;-67
2022/10/29 02:14:40;;;;;;;22.13;12.38;;;;;;;18.12;62.98;102005.00;4952899;28;114645;-67
2022/10/29 02:17:07;;;;;;;21.13;12.63;;;;;;;18.08;62.94;101999.84;4979101;28;125031;-67
2022/10/29 02:19:35;;;;;;;21.95;12.63;;;;;;;18.08;63.14;101993.59;4949079;28;122518;-68
2022/10/29 02:22:02;;;;;;;19.77;11.45;;;;;;;18.06;62.88;101995.50;4967025;28;114983;-67
2022/10/29 02:24:30;;;;;;;22.15;12.63;;;;;;;18.04;62.74;101992.91;4983557;28;113137;-67
2022/10/29 02:26:57;;;;;;;23.42;13.18;;;;;;;18.01;62.85;101998.47;4967279;28;123994;-67
2022/10/29 02:29:24;;;;;;;21.45;13.13;;;;;;;17.99;62.87;102005.75;4964696;28;124409;-67
2022/10/29 02:31:50;;;;;;;26.75;12.88;;;;;;;17.99;62.88;102004.84;4966593;28;114232;-67
2022/10/29 02:34:18;;;;;;;27.20;14.43;;;;;;;17.96;63.24;101995.19;4952594;28;114039;-68
2022/10/29 02:36:44;;;;;;;25.27;14.15;;;;;;;17.96;63.01;101987.16;4964829;28;123757;-67
2022/10/29 02:39:12;;;;;;;27.00;14.57;;;;;;;17.95;63.31;101988.13;4961505;28;122627;-67
2022/10/29 02:41:38;;;;;;;31.23;15.65;;;;;;;17.95;63.19;101988.13;4967855;28;114965;-68
2022/10/29 02:44:05;;;;;;;29.58;15.10;;;;;;;17.94;63.27;101978.34;4958647;28;115680;-67
2022/10/29 02:46:38;;;;;;;26.02;14.85;;;;;;;17.95;63.46;101972.03;4960176;28;126970;-67
2022/10/29 02:49:06;;;;;;;22.40;12.85;;;;;;;17.93;63.28;101967.69;4962653;28;123534;-67
2022/10/29 02:51:33;;;;;;;21.13;11.80;;;;;;;17.90;63.07;101968.75;4959106;28;116655;-67
2022/10/29 02:54:00;;;;;;;16.17;10.50;;;;;;;17.85;63.03;101970.81;4963579;28;113695;-68
2022/10/29 02:56:27;;;;;;;16.30;11.10;;;;;;;17.80;62.93;101968.38;4964904;28;124234;-67
2022/10/29 02:58:54;;;;;;;17.13;10.55;;;;;;;17.77;63.14;101965.00;4962738;28;123125;-68
2022/10/29 03:01:21;;;;;;;15.90;9.85;;;;;;;17.74;63.22;101967.88;4961937;28;114266;-68
2022/10/29 03:03:48;;;;;;;25.23;11.55;;;;;;;17.71;63.16;101969.78;4960160;28;114717;-67
2022/10/29 03:06:17;;;;;;;34.00;11.50;;;;;;;17.70;63.33;101962.66;4962933;28;124163;-68
2022/10/29 03:08:45;;;;;;;19.17;10.50;;;;;;;17.69;63.18;101963.63;4966677;28;123486;-67
2022/10/29 03:11:12;;;;;;;18.23;10.60;;;;;;;17.67;63.27;101962.88;4972480;28;113552;-67
2022/10/29 03:13:39;;;;;;;17.75;10.32;;;;;;;17.63;63.14;101955.97;4956288;28;113821;-67
2022/10/29 03:16:07;;;;;;;13.55;9.68;;;;;;;17.61;63.14;101967.69;4951438;28;123689;-67
2022/10/29 03:18:34;;;;;;;17.15;11.95;;;;;;;17.58;63.12;101966.06;4963983;28;124701;-67
2022/10/29 03:21:01;;;;;;;16.15;11.40;;;;;;;17.53;63.16;101965.44;4951894;28;113758;-68
2022/10/29 03:23:28;;;;;;;19.48;11.57;;;;;;;17.51;63.22;101964.66;4966322;28;114271;-67
2022/10/29 03:25:55;;;;;;;19.25;11.95;;;;;;;17.49;63.35;101969.25;4960281;28;123927;-67
2022/10/29 03:28:24;;;;;;;19.30;10.95;;;;;;;17.47;63.31;101960.44;4972738;28;123610;-67
2022/10/29 03:30:51;;;;;;;22.40;12.85;;;;;;;17.44;63.45;101955.25;4941241;28;114252;-67
2022/10/29 03:33:18;;;;;;;17.35;12.02;;;;;;;17.43;63.53;101958.91;4965127;28;114940;-67
2022/10/29 03:35:45;;;;;;;21.95;13.10;;;;;;;17.43;63.45;101958.91;4962555;28;124507;-67
2022/10/29 03:38:12;;;;;;;21.33;12.98;;;;;;;17.42;63.42;101955.34;4961165;28;124619;-67
2022/10/29 03:40:39;;;;;;;20.55;13.10;;;;;;;17.42;63.46;101952.69;4955115;28;114069;-67
2022/10/29 03:43:06;;;;;;;19.65;12.20;;;;;;;17.41;63.34;101960.78;4959768;28;113995;-67
2022/10/29 03:45:33;;;;;;;20.08;12.20;;;;;;;17.38;63.30;101951.09;4946866;28;123426;-67
2022/10/29 03:48:03;;;;;;;19.98;10.82;;;;;;;17.36;63.69;101957.50;4956349;28;123668;-67
2022/10/29 03:50:30;;;;;;;18.77;8.90;;;;;;;17.35;63.52;101961.13;4967473;28;115174;-67
2022/10/29 03:52:57;;;;;;;37.05;9.88;;;;;;;17.32;63.57;101952.31;4957378;28;114389;-67
2022/10/29 03:55:24;;;;;;;115.75;10.50;;;;;;;17.30;63.22;101948.00;4962579;28;124982;-67
2022/10/29 03:57:51;;;;;;;27.85;9.10;;;;;;;17.25;63.13;101945.59;4966811;28;123877;-67
2022/10/29 04:00:19;;;;;;;16.40;9.18;;;;;;;17.21;63.28;101954.72;4962390;28;114230;-68
2022/10/29 04:02:45;;;;;;;16.83;9.32;;;;;;;17.18;63.32;101949.56;4963983;28;113789;-67
2022/10/29 04:05:13;;;;;;;30.70;11.00;;;;;;;17.17;63.40;101953.16;4966624;28;123742;-67
2022/10/29 04:07:40;;;;;;;74.28;11.00;;;;;;;17.17;63.47;101947.81;4957931;28;123600;-67
2022/10/29 04:10:07;;;;;;;68.28;9.90;;;;;;;17.13;63.74;101941.75;4966677;28;114502;-67
2022/10/29 04:12:34;;;;;;;15.68;9.50;;;;;;;17.12;63.69;101944.50;4967470;28;113356;-67
2022/10/29 04:15:01;;;;;;;13.60;9.60;;;;;;;17.10;63.73;101946.41;4962829;28;124967;-68
2022/10/29 04:17:28;;;;;;;14.63;8.80;;;;;;;17.09;63.88;101944.69;4950365;28;123199;-67
2022/10/29 04:19:55;;;;;;;12.45;9.65;;;;;;;17.10;63.78;101941.06;4959522;28;113226;-67
2022/10/29 04:22:23;;;;;;;15.40;9.55;;;;;;;17.10;63.89;101930.34;4958434;28;115586;-68
2022/10/29 04:25:09;;;;;;;44.30;10.32;;;;;;;17.10;63.89;101914.28;4965770;28;123287;-67
2022/10/29 04:27:56;;;;;;;41.97;11.30;;;;;;;17.08;63.92;101910.84;4960123;28;123565;-67
2022/10/29 04:30:43;;;;;;;195.55;13.32;;;;;;;17.03;63.96;101902.22;4961712;28;114529;-67
2022/10/29 04:33:10;;;;;;;78.45;11.50;;;;;;;16.96;63.90;101898.16;4981179;28;113072;-67
2022/10/29 04:35:38;;;;;;;19.00;11.43;;;;;;;16.91;64.03;101903.75;4964526;28;123872;-67
2022/10/29 04:38:08;;;;;;;16.17;10.77;;;;;;;16.88;64.14;101904.78;4959718;28;123736;-67
2022/10/29 04:40:36;;;;;;;16.20;10.68;;;;;;;16.89;64.23;101911.84;4963489;28;114761;-67
2022/10/29 04:43:03;;;;;;;15.88;10.43;;;;;;;16.89;64.29;101906.50;4964058;28;114493;-67
2022/10/29 04:45:30;;;;;;;18.40;11.38;;;;;;;16.92;64.21;101911.69;4960327;28;123372;-67
2022/10/29 04:47:59;;;;;;;18.25;10.80;;;;;;;16.94;64.29;101906.25;4965021;28;123841;-67
2022/10/29 04:50:27;;;;;;;20.70;11.93;;;;;;;16.97;64.42;101897.19;4964124;28;114715;-68
2022/10/29 04:53:02;;;;;;;17.45;11.98;;;;;;;16.98;64.15;101896.25;4969260;28;114026;-67
2022/10/29 04:55:29;;;;;;;21.70;11.83;;;;;;;16.99;64.12;101889.94;4979087;28;123444;-67
2022/10/29 04:57:56;;;;;;;20.30;11.77;;;;;;;17.01;64.24;101899.63;4965128;28;124237;-67
2022/10/29 05:00:24;;;;;;;32.47;14.73;;;;;;;17.04;64.50;101903.94;4965051;28;114049;-67
2022/10/29 05:02:52;;;;;;;26.92;13.98;;;;;;;17.05;64.57;101900.31;4970180;28;113953;-67
2022/10/29 05:05:20;;;;;;;24.02;12.25;;;;;;;17.06;64.37;101910.06;4962324;28;124012;-67
2022/10/29 05:07:47;;;;;;;21.33;12.85;;;;;;;17.07;64.33;101914.47;4964723;28;123883;-68
2022/10/29 05:10:14;;;;;;;20.13;12.48;;;;;;;17.09;64.10;101909.91;4969053;28;114057;-67
2022/10/29 05:12:41;;;;;;;21.42;13.02;;;;;;;17.09;64.45;101908.09;4949118;28;114095;-67
2022/10/29 05:15:09;;;;;;;28.65;13.98;;;;;;;17.11;64.36;101910.69;4964622;28;124066;-67
2022/10/29 05:17:37;;;;;;;27.63;15.00;;;;;;;17.12;64.46;101904.34;4979140;28;123519;-68
2022/10/29 05:20:05;;;;;;;27.63;14.52;;;;;;;17.14;64.40;101899.81;4963643;28;114396;-67
2022/10/29 05:22:32;;;;;;;27.17;14.60;;;;;;;17.14;64.34;101889.09;4962984;28;113838;-67
2022/10/29 05:24:59;;;;;;;29.05;14.38;;;;;;;17.14;64.28;101889.09;4964486;28;124045;-68
2022/10/29 05:27:26;;;;;;;23.23;14.57;;;;;;;17.14;64.56;101894.47;4965875;28;124615;-67
2022/10/29 05:29:53;;;;;;;21.42;12.52;;;;;;;17.12;64.27;101885.63;4958074;28;113155;-67
2022/10/29 05:32:20;;;;;;;17.58;11.60;;;;;;;17.09;63.97;101885.81;4962382;28;113708;-67
2022/10/29 05:34:47;;;;;;;19.05;11.65;;;;;;;17.05;64.06;101893.16;4960927;28;124204;-67
2022/10/29 05:37:14;;;;;;;40.85;11.80;;;;;;;17.03;64.19;101887.03;4964676;28;125137;-67
2022/10/29 05:39:41;;;;;;;41.67;12.10;;;;;;;17.02;64.17;101887.09;4967076;28;114313;-67
2022/10/29 05:42:08;;;;;;;46.53;12.50;;;;;;;17.01;64.20;101893.38;4964905;28;113895;-67
2022/10/29 05:44:35;;;;;;;16.15;10.65;;;;;;;16.98;64.13;101893.56;4963091;28;124014;-67
2022/10/29 05:47:04;;;;;;;19.58;10.73;;;;;;;16.97;64.06;101886.47;4960952;28;123021;-67
2022/10/29 05:49:31;;;;;;;18.75;10.15;;;;;;;16.96;64.21;101884.78;4963923;28;115724;-67
2022/10/29 05:51:58;;;;;;;20.83;11.35;;;;;;;16.95;64.08;101883.88;4967282;28;114485;-67
2022/10/29 05:54:25;;;;;;;23.45;11.60;;;;;;;16.93;64.13;101884.00;4961280;28;123995;-67
2022/10/29 05:56:52;;;;;;;20.30;11.52;;;;;;;16.92;64.25;101874.22;4962942;28;123536;-67
2022/10/29 05:59:19;;;;;;;22.00;10.73;;;;;;;16.91;64.38;101877.88;4962584;28;115257;-68
2022/10/29 06:01:46;;;;;;;15.73;11.18;;;;;;;16.92;64.00;101874.22;4956900;28;115030;-67
2022/10/29 06:04:13;;;;;;;16.77;11.13;;;;;;;16.91;64.29;101871.63;4958695;28;123593;-68
2022/10/29 06:06:40;;;;;;;18.08;11.13;;;;;;;16.91;64.25;101867.16;4961320;28;126917;-67
2022/10/29 06:09:08;;;;;;;19.27;11.80;;;;;;;16.91;64.21;101876.97;4965615;28;113496;-69
2022/10/29 06:11:35;;;;;;;17.98;11.50;;;;;;;16.91;64.22;101872.50;4965114;28;113842;-68
2022/10/29 06:14:02;;;;;;;18.02;11.13;;;;;;;16.92;64.03;101868.00;4956353;28;124839;-67
2022/10/29 06:16:29;;;;;;;22.30;11.88;;;;;;;16.93;64.21;101865.25;4957880;28;123913;-68
2022/10/29 06:18:56;;;;;;;21.10;12.18;;;;;;;16.95;64.25;101861.63;4958559;28;113039;-68
2022/10/29 06:21:23;;;;;;;18.95;12.13;;;;;;;16.97;64.29;101859.72;4960866;28;113990;-68
2022/10/29 06:23:52;;;;;;;20.75;11.50;;;;;;;16.97;64.59;101859.72;4959929;28;123481;-68
2022/10/29 06:26:19;;;;;;;18.63;11.77;;;;;;;16.97;64.37;101843.66;4961835;28;124031;-68
2022/10/29 06:28:46;;;;;;;18.77;11.77;;;;;;;16.98;64.53;101842.72;4958396;28;114226;-68
2022/10/29 06:31:13;;;;;;;19.50;11.73;;;;;;;16.98;64.35;101840.03;4958747;28;114364;-68
2022/10/29 06:33:40;;;;;;;21.70;11.93;;;;;;;16.98;64.35;101842.72;4966954;28;124118;-68
2022/10/29 06:36:07;;;;;;;26.77;12.82;;;;;;;16.98;64.61;101853.44;4971522;28;123890;-68
2022/10/29 06:38:34;;;;;;;24.52;12.00;;;;;;;16.99;64.58;101868.53;4961344;28;114203;-68
2022/10/29 06:41:01;;;;;;;20.80;12.38;;;;;;;16.99;64.66;101871.19;4958958;28;114037;-68
2022/10/29 06:43:28;;;;;;;20.50;11.65;;;;;;;17.02;64.74;101868.34;4959760;28;124772;-68
2022/10/29 06:45:55;;;;;;;16.48;10.68;;;;;;;17.05;64.77;101873.56;4959930;28;123901;-68
2022/10/29 06:48:22;;;;;;;18.42;9.82;;;;;;;17.07;64.64;101877.00;4963274;28;115705;-68
2022/10/29 06:50:50;;;;;;;20.00;12.02;;;;;;;17.09;64.67;101870.59;4964609;28;115089;-68
2022/10/29 06:53:18;;;;;;;21.42;11.43;;;;;;;17.12;64.71;101877.59;4976207;28;123064;-68
2022/10/29 06:55:45;;;;;;;21.90;12.10;;;;;;;17.15;64.74;101868.53;4963511;28;123097;-68
2022/10/29 06:58:14;;;;;;;22.73;12.40;;;;;;;17.18;64.78;101874.59;4963444;28;113409;-68
2022/10/29 07:00:42;;;;;;;22.08;12.82;;;;;;;17.20;64.79;101878.03;4961454;28;114428;-68
2022/10/29 07:03:14;;;;;;;20.42;12.18;;;;;;;17.23;64.85;101888.56;4959219;28;124026;-67
2022/10/29 07:05:42;;;;;;;21.33;11.48;;;;;;;17.25;64.80;101886.69;4964769;28;124188;-68
2022/10/29 07:08:09;;;;;;;20.98;11.63;;;;;;;17.28;64.83;101886.50;4964685;28;114313;-68
2022/10/29 07:10:37;;;;;;;28.25;13.23;;;;;;;17.32;64.79;101888.03;4960577;28;113950;-68
2022/10/29 07:13:04;;;;;;;23.45;13.00;;;;;;;17.36;64.71;101885.19;4960254;28;124306;-68
2022/10/29 07:15:31;;;;;;;22.88;12.70;;;;;;;17.38;64.67;101884.16;4959737;28;123743;-68
2022/10/29 07:17:58;;;;;;;23.23;10.88;;;;;;;17.41;64.65;101880.44;4959920;28;114123;-68
2022/10/29 07:20:27;;;;;;;20.80;10.35;;;;;;;17.43;64.62;101878.53;4960364;28;114097;-68
2022/10/29 07:22:54;;;;;;;19.48;10.82;;;;;;;17.44;64.58;101880.25;4965393;28;124472;-68
2022/10/29 07:25:21;;;;;;;20.05;10.50;;;;;;;17.45;64.69;101877.50;4952707;28;123542;-69
2022/10/29 07:27:48;;;;;;;24.05;10.18;;;;;;;17.47;64.57;101869.38;4975383;28;113474;-69
2022/10/29 07:30:15;;;;;;;22.88;10.93;;;;;;;17.47;64.47;101869.38;4959618;28;113833;-69
2022/10/29 07:32:42;;;;;;;28.23;11.43;;;;;;;17.51;64.76;101877.13;4962913;28;123273;-70
2022/10/29 07:35:09;;;;;;;25.27;13.45;;;;;;;17.52;64.83;101878.88;4962624;28;123783;-70
2022/10/29 07:37:36;;;;;;;21.83;13.60;;;;;;;17.56;64.78;101874.22;4963522;28;115279;-70
2022/10/29 07:40:04;;;;;;;32.83;14.98;;;;;;;17.60;64.90;101886.47;4960209;28;115909;-69
2022/10/29 07:42:31;;;;;;;25.98;14.48;;;;;;;17.65;64.87;101879.03;4949633;28;124041;-69
2022/10/29 07:44:59;;;;;;;28.98;16.00;;;;;;;17.70;64.87;101868.88;4956157;28;123562;-70
2022/10/29 07:47:26;;;;;;;28.25;16.20;;;;;;;17.74;64.87;101871.41;4955580;28;114241;-70
2022/10/29 07:49:53;;;;;;;25.83;16.30;;;;;;;17.78;64.95;101862.22;4962031;28;113124;-69
2022/10/29 07:52:20;;;;;;;25.70;16.30;;;;;;;17.81;64.92;101859.38;4958498;28;123733;-70
2022/10/29 07:54:47;;;;;;;34.40;17.58;;;;;;;17.85;65.14;101842.19;4958838;28;123660;-69
2022/10/29 07:57:21;;;;;;;25.27;16.42;;;;;;;17.89;65.03;101854.44;4963289;28;114516;-70
2022/10/29 07:59:57;;;;;;;31.42;15.45;;;;;;;17.94;65.18;101857.72;4968804;28;114730;-70
2022/10/29 08:02:24;;;;;;;27.08;16.63;;;;;;;17.99;65.03;101850.25;4967111;28;123990;-70
2022/10/29 08:04:51;;;;;;;28.67;16.52;;;;;;;18.04;65.30;101856.19;4955607;28;123811;-70
2022/10/29 08:07:18;;;;;;;32.13;16.58;;;;;;;18.08;65.27;101855.06;4965084;28;114491;-70
2022/10/29 08:09:45;;;;;;;30.40;18.38;;;;;;;18.15;65.25;101849.34;4962684;28;113401;-70
2022/10/29 08:12:12;;;;;;;29.90;17.77;;;;;;;18.18;65.22;101849.16;4960843;28;124744;-70
2022/10/29 08:14:39;;;;;;;34.05;18.55;;;;;;;18.24;65.14;101854.13;4961931;28;123690;-70
2022/10/29 08:17:06;;;;;;;34.22;18.25;;;;;;;18.27;65.11;101851.25;4964922;28;114013;-69
2022/10/29 08:19:34;;;;;;;29.73;18.08;;;;;;;18.29;65.16;101846.69;4970752;28;113640;-70
2022/10/29 08:22:01;;;;;;;28.00;17.55;;;;;;;18.32;65.37;101843.78;4962658;28;125403;-69
2022/10/29 08:24:28;;;;;;;32.10;17.77;;;;;;;18.35;65.31;101840.94;4971374;28;124164;-69
2022/10/29 08:26:55;;;;;;;32.95;19.13;;;;;;;18.41;65.35;101840.53;4968983;28;115094;-70
2022/10/29 08:29:22;;;;;;;32.83;18.88;;;;;;;18.46;65.37;101838.44;4971967;28;114036;-69
2022/10/29 08:31:49;;;;;;;33.47;18.83;;;;;;;18.54;65.68;101850.50;4963185;28;125996;-69
2022/10/29 08:34:16;;;;;;;35.20;18.20;;;;;;;18.61;65.75;101841.09;4961535;28;124108;-69
2022/10/29 08:36:43;;;;;;;31.48;18.45;;;;;;;18.69;65.56;101836.13;4983126;28;112296;-70
2022/10/29 08:39:10;;;;;;;28.30;17.98;;;;;;;18.76;65.71;101828.53;4962829;28;114314;-70
2022/10/29 08:42:16;;;;;;;28.52;17.80;;;;;;;18.82;65.50;101834.41;4966481;28;124289;-69
2022/10/29 08:45:01;;;;;;;28.98;17.95;;;;;;;18.90;65.64;101835.75;4961370;28;124787;-70
2022/10/29 08:47:41;;;;;;;25.67;17.55;;;;;;;18.98;65.50;101830.75;4966333;28;114501;-69
2022/10/29 08:50:21;;;;;;;29.45;17.02;;;;;;;19.06;65.65;101828.41;4966123;28;114486;-69
2022/10/29 08:52:50;;;;;;;27.98;16.15;;;;;;;19.15;65.50;101826.94;4990280;28;122908;-69
2022/10/29 08:55:37;;;;;;;27.88;16.08;;;;;;;19.23;65.44;101833.56;4963257;28;124746;-69
2022/10/29 08:58:18;;;;;;;29.33;15.68;;;;;;;19.32;65.36;101831.22;4955216;28;114403;-69
2022/10/29 09:00:47;;;;;;;30.10;15.95;;;;;;;19.39;65.09;101835.22;4958183;28;114143;-69
2022/10/29 09:03:14;;;;;;;26.30;15.90;;;;;;;19.45;65.11;101843.72;4959775;28;124743;-69
2022/10/29 09:06:18;;;;;;;28.52;17.15;;;;;;;19.52;65.04;101833.44;4968762;28;123629;-69
2022/10/29 09:09:07;;;;;;;29.33;15.95;;;;;;;19.61;64.89;101837.34;4931358;28;114517;-69
2022/10/29 09:11:53;;;;;;;31.00;15.35;;;;;;;19.70;65.10;101835.84;4953943;28;114051;-69
2022/10/29 09:14:39;;;;;;;25.42;14.85;;;;;;;19.80;64.96;101831.59;4956743;28;123866;-69
2022/10/29 09:17:34;;;;;;;29.88;16.10;;;;;;;19.88;65.07;101829.25;4951937;28;123667;-69
2022/10/29 09:20:23;;;;;;;24.30;14.80;;;;;;;19.99;64.74;101826.69;4975140;28;114830;-69
2022/10/29 09:22:59;;;;;;;25.75;15.75;;;;;;;20.07;64.74;101820.75;4968244;28;114797;-69
2022/10/29 09:25:30;;;;;;;25.73;15.32;;;;;;;20.15;64.67;101815.69;4956823;28;125399;-69
2022/10/29 09:28:42;;;;;;;25.83;15.20;;;;;;;20.23;64.47;101809.81;4963346;28;122898;-68
2022/10/29 09:31:15;;;;;;;24.35;14.40;;;;;;;20.32;64.13;101811.81;4907613;28;114096;-69
2022/10/29 09:33:45;;;;;;;23.25;12.65;;;;;;;20.38;64.13;101806.03;4965195;28;114490;-69
2022/10/29 09:36:16;;;;;;;25.30;13.65;;;;;;;20.47;63.86;101806.31;4952481;28;126068;-69
2022/10/29 09:38:55;;;;;;;20.27;12.57;;;;;;;20.54;63.73;101821.06;4968578;28;123557;-69
2022/10/29 09:41:30;;;;;;;26.48;13.20;;;;;;;20.62;63.64;101813.31;4958662;28;114297;-69
2022/10/29 09:43:58;;;;;;;;;;;;;;;20.69;63.77;101814.59;4952570;28;114487;-68
2022/10/29 09:46:54;;;;;;;22.15;11.40;;;;;;;20.77;63.31;101817.59;4951882;28;124794;-71
2022/10/29 09:49:30;;;;;;;29.40;12.57;;;;;;;20.84;63.25;101811.78;4953799;28;122809;-69
2022/10/29 09:52:01;;;;;;;24.83;12.38;;;;;;;20.90;63.31;101805.94;4960394;28;115492;-70
2022/10/29 09:54:30;;;;;;;22.13;10.90;;;;;;;20.97;63.01;101804.53;4965400;28;113338;-70
2022/10/29 09:57:00;;;;;;;19.85;10.82;;;;;;;21.02;62.72;101796.97;4963211;28;123108;-70
2022/10/29 09:59:39;;;;;;;25.17;11.05;;;;;;;21.09;62.57;101795.50;4961560;28;123672;-70
2022/10/29 10:02:25;;;;;;;20.55;10.65;;;;;;;21.15;62.34;101805.84;4961080;28;114108;-68
2022/10/29 10:04:55;;;;;;;17.60;10.05;;;;;;;21.22;62.10;101794.59;4955767;28;113393;-67
2022/10/29 10:07:22;;;;;;;20.15;10.77;;;;;;;21.27;62.26;101805.91;4963116;28;124334;-68
2022/10/29 10:09:53;;;;;;;16.35;9.55;;;;;;;21.32;61.87;101790.22;4963470;28;125620;-68
2022/10/29 10:12:26;;;;;;;21.02;10.55;;;;;;;21.37;61.67;101782.66;4963422;28;115315;-68
2022/10/29 10:15:15;;;;;;;22.08;10.27;;;;;;;21.41;61.64;101762.59;4960682;28;116850;-68
2022/10/29 10:17:55;;;;;;;20.38;9.43;;;;;;;21.49;61.24;101762.91;4960082;28;123893;-70
2022/10/29 10:20:30;;;;;;;17.05;9.55;;;;;;;21.54;61.10;101757.16;4962613;28;123818;-68
2022/10/29 10:22:57;;;;;;;17.42;9.20;;;;;;;21.61;61.19;101762.94;4963917;28;113803;-68
2022/10/29 10:25:32;;;;;;;17.73;9.30;;;;;;;21.69;61.33;101765.91;4958531;28;114333;-68
2022/10/29 10:28:14;;;;;;;16.77;8.88;;;;;;;21.79;60.91;101769.59;4956909;28;124452;-68
2022/10/29 10:30:42;;;;;;;18.75;9.27;;;;;;;21.90;60.98;101775.00;4948749;28;125450;-68
2022/10/29 10:33:23;;;;;;;18.95;9.27;;;;;;;22.02;60.84;101775.91;4951604;28;114283;-70
2022/10/29 10:35:53;;;;;;;19.85;9.02;;;;;;;22.15;60.34;101767.66;4956630;28;113991;-68
2022/10/29 10:38:20;;;;;;;22.63;9.93;;;;;;;22.26;60.27;101770.41;4968029;28;123920;-68
2022/10/29 10:41:05;;;;;;;16.20;9.55;;;;;;;22.38;60.39;101765.00;4966947;28;125401;-68
2022/10/29 10:43:33;;;;;;;19.80;9.17;;;;;;;22.51;60.19;101773.84;4967919;28;113985;-68
2022/10/29 10:46:09;;;;;;;21.05;9.18;;;;;;;22.61;59.48;101772.09;4967578;28;113596;-68
2022/10/29 10:48:37;;;;;;;18.25;8.80;;;;;;;22.73;59.47;101754.91;4967130;28;123913;-68
2022/10/29 10:51:24;;;;;;;15.98;8.63;;;;;;;22.85;59.00;101757.56;4969479;28;124460;-68
2022/10/29 10:53:51;;;;;;;13.82;8.55;;;;;;;22.98;58.73;101765.50;4967348;28;114111;-68
2022/10/29 10:56:21;;;;;;;16.52;8.20;;;;;;;23.06;58.17;101757.66;4969450;28;114003;-68
2022/10/29 10:58:57;;;;;;;16.75;8.75;;;;;;;23.18;58.11;101753.06;4969480;28;124108;-68
2022/10/29 11:01:30;;;;;;;16.35;8.25;;;;;;;23.29;57.80;101747.63;4960796;28;124390;-68
2022/10/29 11:04:08;;;;;;;16.50;8.27;;;;;;;23.40;57.51;101749.41;4963008;28;115462;-68
2022/10/29 11:06:39;;;;;;;14.18;7.00;;;;;;;23.51;57.13;101747.50;4955146;28;114852;-68
2022/10/29 11:09:25;;;;;;;16.20;6.97;;;;;;;23.62;56.76;101743.00;4955520;28;124046;-68
2022/10/29 11:12:00;;;;;;;19.90;6.47;;;;;;;23.72;56.17;101743.94;4967013;28;123743;-68
2022/10/29 11:14:41;;;;;;;17.00;6.45;;;;;;;23.82;56.19;101733.19;4960711;28;114857;-68
2022/10/29 11:17:21;;;;;;;14.57;7.10;;;;;;;23.95;55.74;101728.44;4962839;28;114364;-69
2022/10/29 11:19:51;;;;;;;14.07;6.85;;;;;;;24.05;55.74;101725.75;4979597;28;123026;-68
2022/10/29 11:22:27;;;;;;;14.48;6.68;;;;;;;24.13;55.29;101742.19;4963424;28;123998;-69